Stratford, Canada
Current Conditions -  °F | °C
As of 9:00 PM on Friday 24 Oct 2014 (Local Time) from CYXU Reporting Station
Broken Clouds Broken Clouds  
Wind Chill: 52°   Ceiling: 4200
Heat Index: 52°   Visibility: 12mi
Dew Point: 41°   Wind: 3mph
Humidity: 67%   Direction: 250°WSW
Pressure: 29.96"   Gusts: NA
Location:  43.37°N, 80.98°W
Report Text: CYXU 250100Z 25003KT 12SM BKN042 11/05 A2996 RMK SC7 SLP153
Loading
Personal Weather Stations






























Interactive Weather Map
Tropical Storm Tracking
New forecast layout! Learn more

10-Day Weather Forecast

Advertisements
Track Severe Weather on mobile